Briefing drone pour Saint-jean-bonnefonds

Rechercher une autre localisation

Conditions de vol :


Nous sommes le : Jeudi 04 mars 2021
Il est 02:29 UTC (03:29 LT)

Lever de soleil : 05:47 UTC (06:47 LT)
Coucher de soleil : 17:59 UTC (18:59 LT)

Météo

L'essentiel des conditions de vol

VIGILANCE MÉTÉO FRANCE - Loire (42)
Pas de vigilances particulieres
CARTE TEMSI
CARTES DES FRONTS
METAR de LFMH
LFMH 040200Z AUTO 00000KT CAVOK 02/M01 Q1025

Date d'émission: 04/03/2021
Heure d'émission: 02:00 UTC
Vent: Calme
Visibilité horizontale: > 10 km
Plafond : Plafond et visibilité OK (CAVOK)
Température: 2 °C
Point de rosée: -1 °C
Humidité: 81%
Pression (QNH): 1025 hPa
TAF de LFMH
LFMH 032004Z 0320/0418 CNL

Conditions prévues :

Heure d'émission : Bulletin éffectué le 03 à 20:00 UTC
Prévision : Valide du 03 a 20:00 UTC au 04 a 18:00 UTC
Nuages : à 0ft (0 m)
WEBCAM POUR SAINT-JEAN-BONNEFONDS

Réglementation

Voler en sécurité

CARTES AERONAUTIQUE 1/500.000
CARTES VAC (LFMH)
SUP AIP




Chargement des AIP...
NOTAM (SAINT-JEAN-BONNEFONDS + Terrain à proximité / FIR )




Chargement des NOTAMS...
CONTACT PREFECTURE 42


Avertissement : Les données mises à disposition sont indicatives. Oxygène Drone ne pourra être tenu responsable de dégâts causés aux biens et aux personnes.